createdAt,value
2022-09-09T06:59:13.993Z,18.8
2022-09-09T07:04:53.996Z,18.6
2022-09-09T07:10:29.709Z,18.7
2022-09-09T07:16:04.489Z,18.7
2022-09-09T07:21:40.637Z,18.6
2022-09-09T07:27:16.409Z,18.7
2022-09-09T07:32:51.462Z,19
2022-09-09T07:38:26.349Z,19.1
2022-09-09T07:44:01.352Z,19.1
2022-09-09T07:49:35.948Z,18.8
2022-09-09T07:55:11.165Z,18.7
2022-09-09T08:00:45.994Z,18.7
2022-09-09T08:06:20.819Z,18.8
2022-09-09T08:11:55.735Z,19
2022-09-09T08:17:30.554Z,19.2
2022-09-09T08:23:06.066Z,19.4
2022-09-09T08:28:41.545Z,19.4
2022-09-09T08:34:16.673Z,19.5
2022-09-09T08:39:53.864Z,19.6
2022-09-09T08:45:30.251Z,19.8
2022-09-09T08:51:05.059Z,20
2022-09-09T08:57:01.876Z,20.2
2022-09-09T09:02:35.702Z,20.6
2022-09-09T09:08:11.646Z,20.7
2022-09-09T09:13:46.615Z,20.6
2022-09-09T09:19:22.880Z,20.7
2022-09-09T09:24:58.929Z,19.9
2022-09-09T09:30:34.400Z,20.2
2022-09-09T09:36:09.236Z,21.3
2022-09-09T09:41:44.198Z,21.8
2022-09-09T09:47:19.295Z,22.2
2022-09-09T09:52:54.163Z,22.2
2022-09-09T09:58:29.059Z,22.2
2022-09-09T10:04:04.677Z,22.9
2022-09-09T10:09:39.709Z,22.8
2022-09-09T10:15:15.520Z,23.2
2022-09-09T10:20:50.241Z,23.7
2022-09-09T10:26:25.364Z,24.1
2022-09-09T10:32:00.229Z,23.8
2022-09-09T10:37:35.420Z,23.9
2022-09-09T10:43:10.335Z,23.5
2022-09-09T10:48:45.150Z,26.2
2022-09-09T10:54:20.110Z,24.3
2022-09-09T10:59:55.331Z,24.8
2022-09-09T11:05:30.172Z,24.8
2022-09-09T11:11:05.208Z,25.2
2022-09-09T11:16:40.037Z,24.9
2022-09-09T11:22:15.784Z,25.8
2022-09-09T11:27:51.000Z,25.3
2022-09-09T11:33:26.702Z,26.6
2022-09-09T11:39:02.212Z,25.7
2022-09-09T11:50:12.863Z,26.8
2022-09-09T11:55:47.768Z,27.3
2022-09-09T12:01:23.027Z,26.6
2022-09-09T12:06:58.227Z,26.3
2022-09-09T12:12:33.167Z,26
2022-09-09T12:18:13.841Z,27.4
2022-09-09T12:23:49.690Z,28
2022-09-09T12:29:25.057Z,27.1
2022-09-09T12:35:01.739Z,26.5
2022-09-09T12:40:36.703Z,25.5
2022-09-09T12:46:12.555Z,24.6
2022-09-09T12:51:48.338Z,25.9
2022-09-09T12:57:25.015Z,26.4
2022-09-09T13:03:00.960Z,27.6
2022-09-09T13:08:38.797Z,32.8
2022-09-09T13:14:14.976Z,32.1
2022-09-09T13:19:49.934Z,37.3
2022-09-09T13:25:24.767Z,42.1
2022-09-09T13:31:03.202Z,45.6
2022-09-09T13:36:48.550Z,44.6
2022-09-09T13:42:23.675Z,33.9
2022-09-09T13:47:59.427Z,30.4
2022-09-09T13:53:34.446Z,30.3
2022-09-09T13:59:11.613Z,36.7
2022-09-09T14:04:48.302Z,45.5
2022-09-09T14:10:24.322Z,43.1
2022-09-09T14:15:59.477Z,36.7
2022-09-09T14:21:35.907Z,32.8
2022-09-09T14:27:11.107Z,31.3
2022-09-09T14:32:45.982Z,30.6
2022-09-09T14:38:21.258Z,30.8
2022-09-09T14:43:57.679Z,30.7
2022-09-09T14:49:32.379Z,30
2022-09-09T14:55:08.330Z,30.1
2022-09-09T15:00:43.191Z,29.8
2022-09-09T15:06:17.860Z,29.4
2022-09-09T15:11:52.811Z,29.2
2022-09-09T15:17:28.600Z,29
2022-09-09T15:23:03.716Z,28.5
2022-09-09T15:28:40.303Z,28.1
2022-09-09T15:34:15.421Z,27.8
2022-09-09T15:39:51.031Z,27.5
2022-09-09T15:45:27.782Z,27.2
2022-09-09T15:51:07.833Z,26.8
2022-09-09T15:57:20.021Z,26.5
2022-09-09T16:02:55.021Z,26.2
2022-09-09T16:08:30.365Z,26
2022-09-09T16:14:05.304Z,25.7
2022-09-09T16:19:41.153Z,25.5
2022-09-09T16:25:16.464Z,25.3
2022-09-09T16:30:51.545Z,25.1
2022-09-09T16:36:27.553Z,24.9
2022-09-09T16:42:03.346Z,24.7
2022-09-09T16:47:38.376Z,24.5
2022-09-09T16:53:13.605Z,24.3
2022-09-09T16:58:48.753Z,24.2
2022-09-09T17:04:23.664Z,24
2022-09-09T17:09:58.578Z,23.9
2022-09-09T17:15:34.433Z,22.8
2022-09-09T17:21:10.228Z,22.2
2022-09-09T17:26:44.858Z,21.8
2022-09-09T17:32:20.842Z,21.6
2022-09-09T17:37:55.861Z,21.4
2022-09-09T17:43:30.831Z,21.3
2022-09-09T17:49:06.048Z,21.1
2022-09-09T17:54:40.936Z,20.9
2022-09-09T18:00:17.931Z,20.5
2022-09-09T18:05:52.729Z,20.4
2022-09-09T18:11:27.732Z,20.1
2022-09-09T18:17:03.613Z,19.9
2022-09-09T18:22:38.413Z,19.7
2022-09-09T18:28:13.468Z,19.5
2022-09-09T18:33:48.331Z,19.3
2022-09-09T18:39:24.351Z,19.2
2022-09-09T18:44:59.408Z,19
2022-09-09T18:50:35.312Z,18.9
